Time;durP1;ratioP1;P1;durP2;ratioP2;P2;SDS_P1;SDS_P2;PMS_P1;PMS_P2;Temp;Humidity;BMP_temperature;BMP_pressure;BME280_temperature;BME280_humidity;BME280_pressure;Samples;Min_cycle;Max_cycle;Signal;HPM_P1;HPM_P2
2022/07/09 00:00:09;;;;;;;0.20;0.00;;;24.60;99.90;;;;;;21256639;28;20223;-69
2022/07/09 00:10:13;;;;;;;0.20;0.00;;;24.70;99.90;;;;;;21237145;28;20199;-69
2022/07/09 00:20:18;;;;;;;0.20;0.00;;;24.70;99.90;;;;;;21253856;28;20227;-69
2022/07/09 00:30:22;;;;;;;0.20;0.00;;;24.60;99.90;;;;;;21254917;28;20187;-70
2022/07/09 00:40:28;;;;;;;0.20;0.00;;;24.50;99.90;;;;;;21334629;27;20222;-69
2022/07/09 00:50:32;;;;;;;0.20;0.00;;;24.40;99.90;;;;;;21338762;27;20186;-69
2022/07/09 01:00:38;;;;;;;0.20;0.00;;;24.20;99.90;;;;;;21337930;27;20214;-70
2022/07/09 01:10:42;;;;;;;0.20;0.00;;;24.10;99.90;;;;;;21319914;27;20190;-69
2022/07/09 01:20:48;;;;;;;0.20;0.00;;;24.00;99.90;;;;;;21317602;27;20230;-70
2022/07/09 01:30:52;;;;;;;0.20;0.00;;;23.80;99.90;;;;;;21317915;28;20193;-69
2022/07/09 01:40:57;;;;;;;0.20;0.00;;;23.80;99.90;;;;;;21251367;28;20226;-69
2022/07/09 01:51:01;;;;;;;0.20;0.00;;;23.40;99.90;;;;;;21250711;28;20199;-69
2022/07/09 02:01:07;;;;;;;0.20;0.00;;;23.40;99.90;;;;;;21250312;28;20222;-69
2022/07/09 02:11:11;;;;;;;0.20;0.00;;;23.20;99.90;;;;;;21232437;28;20183;-70
2022/07/09 02:21:17;;;;;;;0.20;0.00;;;23.30;99.90;;;;;;21249463;28;20251;-70
2022/07/09 02:31:20;;;;;;;0.20;0.00;;;23.30;99.90;;;;;;21254901;27;20195;-70
2022/07/09 02:41:26;;;;;;;0.20;0.00;;;22.90;99.90;;;;;;21349500;27;20879;-71
2022/07/09 02:51:30;;;;;;;0.20;0.10;;;23.00;99.90;;;;;;21330271;27;20287;-70
2022/07/09 03:01:35;;;;;;;0.20;0.00;;;22.90;99.90;;;;;;21348429;27;20219;-70
2022/07/09 03:11:39;;;;;;;0.20;0.00;;;22.60;99.90;;;;;;21329589;27;20216;-69
2022/07/09 03:21:44;;;;;;;0.20;0.00;;;22.50;99.90;;;;;;21345855;27;20230;-69
2022/07/09 03:31:47;;;;;;;0.20;0.00;;;22.30;99.90;;;;;;21338303;27;20213;-69
2022/07/09 03:41:53;;;;;;;0.20;0.00;;;21.90;99.90;;;;;;21258091;28;20253;-69
2022/07/09 03:51:57;;;;;;;0.20;0.07;;;22.00;99.90;;;;;;21240355;28;20221;-70
2022/07/09 04:02:20;;;;;;;0.20;0.00;;;21.90;99.90;;;;;;21252100;27;20245;-70
2022/07/09 04:12:24;;;;;;;0.20;0.00;;;21.70;99.90;;;;;;21323033;27;20194;-71
2022/07/09 04:22:29;;;;;;;0.20;0.10;;;21.50;99.90;;;;;;21335057;27;20227;-69
2022/07/09 04:32:34;;;;;;;0.20;0.00;;;21.60;99.90;;;;;;21252541;28;20200;-70
2022/07/09 04:42:39;;;;;;;0.20;0.00;;;21.50;99.90;;;;;;21235728;28;20210;-71
2022/07/09 04:52:44;;;;;;;0.20;0.10;;;21.40;99.90;;;;;;21252442;28;20187;-69
2022/07/09 05:02:50;;;;;;;0.20;0.00;;;21.40;99.90;;;;;;21252349;28;20236;-71
2022/07/09 05:12:54;;;;;;;0.20;0.10;;;21.60;99.90;;;;;;21234212;28;20195;-70
2022/07/09 05:22:59;;;;;;;0.20;0.00;;;22.30;99.90;;;;;;21233561;28;20223;-70
2022/07/09 05:33:03;;;;;;;0.20;0.10;;;22.50;99.90;;;;;;21251187;28;20355;-70
2022/07/09 05:43:08;;;;;;;0.20;0.00;;;23.00;99.90;;;;;;21250851;28;20240;-69
2022/07/09 05:53:12;;;;;;;0.20;0.00;;;23.40;99.90;;;;;;21250157;28;20195;-68
2022/07/09 06:03:17;;;;;;;0.20;0.00;;;23.80;99.90;;;;;;21248883;28;20223;-69
2022/07/09 06:13:21;;;;;;;0.20;0.00;;;24.30;99.90;;;;;;21245964;28;20222;-70
2022/07/09 06:23:26;;;;;;;0.20;0.00;;;24.50;99.90;;;;;;21264487;28;20232;-71
2022/07/09 06:33:30;;;;;;;0.20;0.10;;;24.80;99.90;;;;;;21245846;28;20188;-70
2022/07/09 06:43:35;;;;;;;0.20;0.00;;;25.00;99.90;;;;;;21262278;28;20245;-70
2022/07/09 06:53:39;;;;;;;0.20;0.00;;;25.20;99.90;;;;;;21260050;28;20224;-69
2022/07/09 07:03:44;;;;;;;0.20;0.00;;;25.40;99.90;;;;;;21259840;28;20211;-70
2022/07/09 07:13:48;;;;;;;0.20;0.00;;;25.40;99.90;;;;;;21258642;28;20233;-70
2022/07/09 07:23:53;;;;;;;0.20;0.00;;;25.60;99.90;;;;;;21257460;28;20247;-71
2022/07/09 07:33:57;;;;;;;0.20;0.00;;;25.90;99.90;;;;;;21258265;28;20191;-70
2022/07/09 07:44:02;;;;;;;0.20;0.10;;;26.00;99.90;;;;;;21256056;28;20223;-70
2022/07/09 07:54:06;;;;;;;0.20;0.00;;;25.70;99.90;;;;;;21255242;28;20187;-70
2022/07/09 08:04:11;;;;;;;0.20;0.00;;;25.70;99.90;;;;;;21254870;28;20219;-69
2022/07/09 08:14:15;;;;;;;0.20;0.00;;;25.80;99.90;;;;;;21253231;28;20192;-69
2022/07/09 08:24:20;;;;;;;0.20;0.00;;;25.90;99.90;;;;;;21233793;28;20245;-69
2022/07/09 08:34:24;;;;;;;0.20;0.08;;;25.80;99.90;;;;;;21251077;28;20210;-69
2022/07/09 08:44:31;;;;;;;0.20;0.05;;;25.90;99.90;;;;;;21249128;28;20256;-70
2022/07/09 08:54:37;;;;;;;0.20;0.10;;;25.70;99.90;;;;;;21249938;28;20199;-69
2022/07/09 09:04:42;;;;;;;0.20;0.00;;;26.40;99.90;;;;;;21230646;28;20302;-70
2022/07/09 09:14:50;;;;;;;0.20;0.00;;;27.00;99.90;;;;;;21247713;28;20263;-70
2022/07/09 09:24:55;;;;;;;0.20;0.00;;;27.10;99.90;;;;;;21176613;28;20300;-68
2022/07/09 09:35:03;;;;;;;0.20;0.00;;;26.80;99.90;;;;;;21143449;28;20192;-69
2022/07/09 09:45:11;;;;;;;0.20;0.00;;;27.20;99.90;;;;;;21244139;28;20223;-68
2022/07/09 09:55:15;;;;;;;0.20;0.00;;;27.70;99.90;;;;;;21262637;28;20195;-68
2022/07/09 10:05:20;;;;;;;0.20;0.00;;;27.60;99.90;;;;;;21248235;28;20227;-69
2022/07/09 10:15:26;;;;;;;0.20;0.00;;;27.80;99.90;;;;;;21258816;28;20629;-68
2022/07/09 10:25:44;;;;;;;0.20;0.00;;;27.90;99.90;;;;;;21337211;27;20242;-70
2022/07/09 10:35:49;;;;;;;0.20;0.00;;;28.50;99.90;;;;;;21326263;27;20195;-68
2022/07/09 10:45:55;;;;;;;0.20;0.00;;;28.50;99.90;;;;;;21343558;27;20226;-70
2022/07/09 10:56:00;;;;;;;0.20;0.00;;;29.00;99.90;;;;;;21343085;27;20206;-69
2022/07/09 11:06:05;;;;;;;0.20;0.10;;;29.20;99.90;;;;;;21343168;27;20240;-70
2022/07/09 11:16:09;;;;;;;0.20;0.00;;;29.50;99.90;;;;;;21342072;27;20230;-69
2022/07/09 11:26:16;;;;;;;0.20;0.10;;;29.70;99.90;;;;;;21256700;27;20247;-70
2022/07/09 11:36:20;;;;;;;0.20;0.00;;;30.00;99.90;;;;;;21238776;28;20198;-69
2022/07/09 11:46:25;;;;;;;0.20;0.00;;;30.70;99.90;;;;;;21253792;28;20279;-70
2022/07/09 11:56:41;;;;;;;0.20;0.00;;;30.90;99.90;;;;;;21249290;28;20187;-69
2022/07/09 12:06:50;;;;;;;0.20;0.00;;;31.10;99.90;;;;;;21251965;28;20215;-70
2022/07/09 12:16:54;;;;;;;0.20;0.00;;;31.50;99.90;;;;;;21259385;27;20218;-69
2022/07/09 12:26:59;;;;;;;0.20;0.00;;;32.00;99.90;;;;;;21338869;27;20236;-69
2022/07/09 12:37:23;;;;;;;0.20;0.00;;;32.60;99.90;;;;;;21336034;27;20206;-70
2022/07/09 12:47:28;;;;;;;0.20;0.00;;;32.60;99.90;;;;;;21334456;27;20227;-68
2022/07/09 12:57:32;;;;;;;0.20;0.00;;;33.80;99.90;;;;;;21337056;27;20186;-69
2022/07/09 13:07:37;;;;;;;0.20;0.00;;;33.30;99.90;;;;;;21336678;27;20214;-69
2022/07/09 13:17:41;;;;;;;0.20;0.00;;;33.60;99.90;;;;;;21325726;27;20223;-69
2022/07/09 13:27:46;;;;;;;0.20;0.00;;;33.40;99.90;;;;;;21232527;28;20230;-69
2022/07/09 13:37:50;;;;;;;0.20;0.00;;;33.30;99.90;;;;;;21250915;28;20179;-69
2022/07/09 13:47:55;;;;;;;0.20;0.00;;;33.70;99.90;;;;;;21241382;28;20227;-68
2022/07/09 13:57:59;;;;;;;0.20;0.00;;;33.60;99.90;;;;;;21246414;28;20188;-68
2022/07/09 14:08:05;;;;;;;0.20;0.00;;;33.40;99.90;;;;;;21245185;28;20249;-69
2022/07/09 14:18:09;;;;;;;0.20;0.00;;;33.40;99.90;;;;;;21232802;27;20226;-69
2022/07/09 14:28:14;;;;;;;0.20;0.00;;;34.10;99.90;;;;;;21318779;27;20218;-68
2022/07/09 14:38:18;;;;;;;0.20;0.00;;;34.00;99.90;;;;;;21349406;27;20215;-68
2022/07/09 14:48:23;;;;;;;0.20;0.10;;;33.70;99.90;;;;;;21346680;27;20246;-68
2022/07/09 14:58:27;;;;;;;0.20;0.00;;;32.70;99.90;;;;;;21325399;27;20220;-69
2022/07/09 15:08:32;;;;;;;0.20;0.00;;;32.90;99.90;;;;;;21342660;27;20222;-69
2022/07/09 15:18:36;;;;;;;0.20;0.00;;;32.00;99.90;;;;;;21340287;27;20253;-69
2022/07/09 15:28:42;;;;;;;0.20;0.03;;;33.10;99.90;;;;;;21322925;27;20234;-69
2022/07/09 15:38:45;;;;;;;0.20;0.00;;;32.10;99.90;;;;;;21319112;27;20220;-69
2022/07/09 15:48:50;;;;;;;0.20;0.00;;;32.90;99.90;;;;;;21318431;27;20234;-68
2022/07/09 15:58:54;;;;;;;0.20;0.00;;;33.20;99.90;;;;;;21325923;27;20201;-68
2022/07/09 16:08:59;;;;;;;0.20;0.10;;;33.20;99.90;;;;;;21312287;27;20310;-68
2022/07/09 16:19:03;;;;;;;0.20;0.00;;;32.70;99.90;;;;;;21278368;27;20227;-69
2022/07/09 16:29:09;;;;;;;0.20;0.00;;;32.20;99.90;;;;;;21314362;27;20268;-69
2022/07/09 16:39:13;;;;;;;0.20;0.00;;;31.40;99.90;;;;;;21313584;27;20199;-69
2022/07/09 16:49:19;;;;;;;0.20;0.00;;;31.60;99.90;;;;;;21329934;27;20302;-69
2022/07/09 16:59:43;;;;;;;0.20;0.00;;;31.00;99.90;;;;;;21331389;27;20214;-69
2022/07/09 17:10:10;;;;;;;0.20;0.10;;;31.50;99.90;;;;;;21329862;27;20218;-68
2022/07/09 17:20:14;;;;;;;0.20;0.00;;;32.90;99.90;;;;;;21329405;27;20218;-68
2022/07/09 17:30:19;;;;;;;0.20;0.00;;;33.10;99.90;;;;;;21317343;27;20219;-68
2022/07/09 17:40:24;;;;;;;0.20;0.00;;;33.10;99.90;;;;;;21245090;28;20203;-69
2022/07/09 17:50:29;;;;;;;0.20;0.00;;;33.00;99.90;;;;;;21247551;28;20264;-68
2022/07/09 18:00:35;;;;;;;0.20;0.00;;;33.00;99.90;;;;;;21287827;27;20221;-69
2022/07/09 18:10:40;;;;;;;0.20;0.00;;;32.40;99.90;;;;;;21342698;27;20222;-69
2022/07/09 18:20:45;;;;;;;0.20;0.00;;;32.70;99.90;;;;;;21342800;27;20247;-68
2022/07/09 18:30:50;;;;;;;0.20;0.00;;;31.90;99.90;;;;;;21342324;27;20278;-68
2022/07/09 18:40:54;;;;;;;0.20;0.00;;;31.80;99.90;;;;;;21340559;27;20195;-69
2022/07/09 18:51:00;;;;;;;0.20;0.00;;;30.90;99.90;;;;;;21321552;27;20259;-68
2022/07/09 19:01:04;;;;;;;0.20;0.00;;;30.00;99.90;;;;;;21339244;27;20258;-69
2022/07/09 19:11:09;;;;;;;0.20;0.00;;;28.20;99.90;;;;;;21338676;27;20218;-68
2022/07/09 19:21:14;;;;;;;0.20;0.00;;;27.20;99.90;;;;;;21321421;27;20233;-69
2022/07/09 19:41:41;;;;;;;0.20;0.10;;;26.90;99.90;;;;;;21335235;27;20214;-68
2022/07/09 19:51:47;;;;;;;0.20;0.00;;;26.70;99.90;;;;;;21335196;27;20219;-68
2022/07/09 20:01:51;;;;;;;0.20;0.00;;;26.60;99.90;;;;;;21316388;27;20186;-69
2022/07/09 20:11:56;;;;;;;0.20;0.00;;;26.40;99.90;;;;;;21335424;27;20225;-69
2022/07/09 20:22:00;;;;;;;0.20;0.00;;;26.30;99.90;;;;;;21321763;27;20223;-70
2022/07/09 20:32:06;;;;;;;0.20;0.00;;;26.10;99.90;;;;;;21248775;28;20249;-70
2022/07/09 20:42:10;;;;;;;0.20;0.00;;;25.90;99.90;;;;;;21240919;28;20191;-70
2022/07/09 20:52:15;;;;;;;0.20;0.00;;;25.50;99.90;;;;;;21228123;28;20264;-69
2022/07/09 21:02:19;;;;;;;0.20;0.00;;;25.30;99.90;;;;;;21245457;28;20202;-68
2022/07/09 21:12:24;;;;;;;0.20;0.00;;;25.20;99.90;;;;;;21244525;28;20227;-68
2022/07/09 21:22:30;;;;;;;0.20;0.00;;;24.90;99.90;;;;;;21276753;27;20234;-71
2022/07/09 21:32:36;;;;;;;0.20;0.00;;;25.00;99.90;;;;;;21332046;27;20223;-71
2022/07/09 21:42:40;;;;;;;0.20;0.00;;;24.70;99.90;;;;;;21324337;27;20202;-71
2022/07/09 21:52:45;;;;;;;0.20;0.00;;;24.60;99.90;;;;;;21310286;28;20226;-71
2022/07/09 22:02:49;;;;;;;0.20;0.00;;;24.50;99.90;;;;;;21308825;28;20198;-68
2022/07/09 22:12:54;;;;;;;0.20;0.00;;;24.30;99.90;;;;;;21327423;28;20223;-68
2022/07/09 22:22:58;;;;;;;0.20;0.00;;;24.10;99.90;;;;;;21327173;28;20234;-68
2022/07/09 22:33:03;;;;;;;0.20;0.00;;;24.00;99.90;;;;;;21327059;28;20252;-67
2022/07/09 22:43:07;;;;;;;0.20;0.10;;;24.10;99.90;;;;;;21326862;27;20186;-67
2022/07/09 22:53:12;;;;;;;0.20;0.00;;;24.10;99.90;;;;;;21336427;27;20190;-67
2022/07/09 23:03:16;;;;;;;0.20;0.00;;;24.00;99.90;;;;;;21340974;27;20203;-69
2022/07/09 23:13:22;;;;;;;0.20;0.00;;;24.50;99.90;;;;;;21340444;27;20220;-68
2022/07/09 23:23:25;;;;;;;0.20;0.00;;;24.60;99.90;;;;;;21338871;27;20256;-69
2022/07/09 23:33:31;;;;;;;0.20;0.00;;;24.20;99.90;;;;;;21339371;27;20199;-68
2022/07/09 23:43:35;;;;;;;0.20;0.00;;;24.00;99.90;;;;;;21338934;27;20299;-68
2022/07/09 23:53:40;;;;;;;0.20;0.00;;;24.20;99.90;;;;;;21321116;27;20194;-68
